Time;durP1;ratioP1;P1;durP2;ratioP2;P2;SDS_P1;SDS_P2;PMS_P1;PMS_P2;Temp;Humidity;BMP_temperature;BMP_pressure;BME280_temperature;BME280_humidity;BME280_pressure;Samples;Min_cycle;Max_cycle;Signal;HPM_P1;HPM_P2
2022/01/30 00:02:14;;;;;;;;;;;;;;;10.14;83.89;98142.14;1796324;79;21055;-80
2022/01/30 00:04:39;;;;;;;;;;;;;;;10.00;84.59;98165.86;1794873;79;20188;-79
2022/01/30 00:07:05;;;;;;;;;;;;;;;9.97;84.47;98114.84;1799000;78;21117;-79
2022/01/30 00:09:31;;;;;;;;;;;;;;;10.12;84.57;98094.87;1796603;79;20185;-79
2022/01/30 00:12:00;;;;;;;;;;;;;;;9.97;85.26;98075.30;1793199;78;20139;-78
2022/01/30 00:14:26;;;;;;;;;;;;;;;10.02;84.96;98097.93;1792759;79;20123;-77
2022/01/30 00:16:58;;;;;;;;;;;;;;;10.06;85.09;98071.44;1792061;79;20122;-77
2022/01/30 00:19:25;;;;;;;;;;;;;;;9.78;86.65;98115.14;1789941;79;20107;-78
2022/01/30 00:21:51;;;;;;;;;;;;;;;10.09;85.61;98140.63;1792994;79;20542;-78
2022/01/30 00:24:21;;;;;;;;;;;;;;;10.08;85.68;98084.94;1792041;79;20196;-78
2022/01/30 00:26:42;;;;;;;;;;;;;;;10.09;85.97;98098.44;1791395;79;20164;-78
2022/01/30 00:29:08;;;;;;;;;;;;;;;9.87;87.76;98135.55;1796653;78;20142;-78
2022/01/30 00:31:34;;;;;;;;;;;;;;;9.81;91.89;98149.53;1796095;79;20272;-78
2022/01/30 00:34:01;;;;;;;;;;;;;;;10.02;90.54;98138.80;1791679;79;20195;-78
2022/01/30 00:36:29;;;;;;;;;;;;;;;10.11;87.82;98116.98;1796197;79;20154;-78
2022/01/30 00:38:54;;;;;;;;;;;;;;;10.19;85.24;98108.88;1799040;79;20170;-78
2022/01/30 00:41:20;;;;;;;;;;;;;;;9.79;85.87;98133.08;1793303;78;20522;-78
2022/01/30 00:43:45;;;;;;;;;;;;;;;9.81;81.82;98165.34;1795267;78;20183;-79
2022/01/30 00:46:11;;;;;;;;;;;;;;;9.98;79.23;98152.59;1790773;78;20173;-78
2022/01/30 00:48:37;;;;;;;;;;;;;;;10.38;78.18;98190.38;1786217;79;20459;-78
2022/01/30 00:51:02;;;;;;;;;;;;;;;10.06;77.32;98144.48;1785378;78;22182;-79
2022/01/30 00:53:28;;;;;;;;;;;;;;;10.09;75.83;98167.00;1786079;79;20143;-78
2022/01/30 00:55:53;;;;;;;;;;;;;;;9.65;75.21;98181.83;1786271;79;20150;-77
2022/01/30 00:58:19;;;;;;;;;;;;;;;9.85;74.52;98188.95;1784902;79;20128;-77
2022/01/30 01:00:44;;;;;;;;;;;;;;;9.86;74.68;98181.36;1785855;79;20151;-78
2022/01/30 01:03:10;;;;;;;;;;;;;;;9.86;74.69;98186.12;1786008;79;21032;-78
2022/01/30 01:05:37;;;;;;;;;;;;;;;9.78;74.40;98216.63;1786533;79;20149;-78
2022/01/30 01:08:09;;;;;;;;;;;;;;;9.62;75.37;98157.20;1787086;79;20168;-78
2022/01/30 01:10:43;;;;;;;;;;;;;;;9.77;74.47;98174.66;1787548;79;20639;-78
2022/01/30 01:23:50;;;;;;;;;;;;;;;9.09;74.90;98197.32;1786721;79;20231;-77
2022/01/30 01:26:17;;;;;;;;;;;;;;;9.32;73.51;98179.08;1783776;79;20479;-78
2022/01/30 01:28:42;;;;;;;;;;;;;;;9.41;72.47;98135.74;1786897;78;21067;-78
2022/01/30 01:31:08;;;;;;;;;;;;;;;9.19;72.80;98168.50;1784641;79;20137;-77
2022/01/30 01:34:27;;;;;;;;;;;;;;;9.50;71.47;98156.95;1787898;79;20206;-78
2022/01/30 01:36:04;;;;;;;;;;;;;;;9.39;71.29;98119.85;1757112;79;20127;-78
2022/01/30 01:38:30;;;;;;;;;;;;;;;9.09;70.49;98142.03;1783569;79;20172;-78
2022/01/30 01:40:56;;;;;;;;;;;;;;;9.53;68.84;98139.94;1786922;79;21229;-77
2022/01/30 01:43:22;;;;;;;;;;;;;;;9.12;68.52;98150.02;1784522;79;20159;-78
2022/01/30 01:45:50;;;;;;;;;;;;;;;8.96;68.67;98169.11;1787207;79;20161;-78
2022/01/30 01:48:16;;;;;;;;;;;;;;;9.22;67.53;98171.55;1786595;79;20496;-78
2022/01/30 01:50:50;;;;;;;;;;;;;;;9.01;67.41;98167.70;1788449;79;20181;-79
2022/01/30 01:53:14;;;;;;;;;;;;;;;9.22;66.57;98220.27;1784721;78;21749;-77
2022/01/30 01:55:42;;;;;;;;;;;;;;;9.12;66.37;98161.87;1789878;79;20166;-77
2022/01/30 01:58:07;;;;;;;;;;;;;;;9.30;65.92;98140.27;1789894;79;20126;-80
2022/01/30 02:00:33;;;;;;;;;;;;;;;8.87;66.26;98142.64;1782334;79;20151;-81
2022/01/30 02:02:59;;;;;;;;;;;;;;;8.95;66.34;98221.95;1785407;79;20141;-79
2022/01/30 02:05:27;;;;;;;;;;;;;;;9.16;66.08;98165.75;1783482;79;21101;-80
2022/01/30 02:10:34;;;;;;;;;;;;;;;9.01;66.73;98155.37;1786895;79;20116;-78
2022/01/30 02:12:55;;;;;;;;;;;;;;;9.52;64.71;98156.75;1783995;79;20443;-78
2022/01/30 02:23:59;;;;;;;;;;;;;;;9.10;66.54;98166.53;1786027;79;20124;-78
2022/01/30 02:26:03;;;;;;;;;;;;;;;9.05;67.65;98126.81;1783619;79;20427;-80
2022/01/30 02:28:27;;;;;;;;;;;;;;;8.66;68.17;98149.30;1786877;79;20144;-79
2022/01/30 02:31:01;;;;;;;;;;;;;;;8.87;68.64;98126.84;1788074;79;21222;-77
2022/01/30 02:33:23;;;;;;;;;;;;;;;8.83;69.78;98093.22;1785212;79;20177;-78
2022/01/30 02:35:49;;;;;;;;;;;;;;;9.09;69.53;98120.13;1787928;79;20169;-78
2022/01/30 02:38:16;;;;;;;;;;;;;;;8.79;69.65;98113.83;1784581;79;20694;-78
2022/01/30 02:40:44;;;;;;;;;;;;;;;8.85;68.35;98174.91;1787976;79;20211;-78
2022/01/30 02:43:09;;;;;;;;;;;;;;;8.75;69.13;98127.89;1785657;79;20079;-78
2022/01/30 02:45:37;;;;;;;;;;;;;;;8.82;68.37;98127.91;1784745;79;20336;-79
2022/01/30 02:50:39;;;;;;;;;;;;;;;9.12;66.61;98102.63;1796589;79;20191;-79
2022/01/30 02:53:05;;;;;;;;;;;;;;;8.83;66.81;98155.87;1792219;79;20474;-78
2022/01/30 02:55:30;;;;;;;;;;;;;;;8.96;66.41;98090.14;1795605;78;20401;-79
2022/01/30 02:57:56;;;;;;;;;;;;;;;8.93;66.28;98084.44;1794675;79;20150;-78
2022/01/30 03:00:22;;;;;;;;;;;;;;;8.58;66.93;98077.41;1795643;78;21331;-78
2022/01/30 03:02:47;;;;;;;;;;;;;;;8.67;66.49;98086.44;1790127;79;20835;-78
2022/01/30 03:05:13;;;;;;;;;;;;;;;8.86;66.39;98100.20;1793136;79;20143;-79
2022/01/30 03:07:38;;;;;;;;;;;;;;;9.14;66.04;98071.66;1791897;79;21221;-80
2022/01/30 03:10:04;;;;;;;;;;;;;;;8.22;70.14;98096.78;1797612;79;20431;-78
2022/01/30 03:12:30;;;;;;;;;;;;;;;8.30;71.34;98134.44;1795309;79;20141;-78
2022/01/30 03:14:56;;;;;;;;;;;;;;;8.89;70.52;98117.44;1796186;79;20164;-78
2022/01/30 03:17:21;;;;;;;;;;;;;;;8.00;75.49;98139.87;1795620;79;20457;-79
2022/01/30 03:19:47;;;;;;;;;;;;;;;7.67;78.63;98190.30;1798485;79;21031;-79
2022/01/30 03:22:12;;;;;;;;;;;;;;;7.54;81.82;98097.22;1795301;79;20139;-79
2022/01/30 03:24:38;;;;;;;;;;;;;;;7.58;82.65;98123.12;1795562;79;20151;-79
2022/01/30 03:27:04;;;;;;;;;;;;;;;7.62;82.13;98122.55;1792207;79;20449;-79
2022/01/30 03:29:32;;;;;;;;;;;;;;;7.62;81.57;98088.41;1795918;79;20194;-79
2022/01/30 03:31:58;;;;;;;;;;;;;;;7.38;81.99;98184.13;1797312;79;21140;-79
2022/01/30 03:34:23;;;;;;;;;;;;;;;7.58;81.05;98152.01;1790535;79;20752;-77
2022/01/30 03:36:49;;;;;;;;;;;;;;;6.38;86.05;98144.23;1797040;79;20140;-81
2022/01/30 03:39:14;;;;;;;;;;;;;;;6.39;86.95;98132.77;1792363;79;20114;-80
2022/01/30 03:41:40;;;;;;;;;;;;;;;6.08;87.62;98174.83;1794297;79;20190;-81
2022/01/30 03:44:05;;;;;;;;;;;;;;;5.15;87.86;98100.63;1796814;79;21131;-81
2022/01/30 03:46:31;;;;;;;;;;;;;;;6.08;89.07;98114.05;1795251;79;20188;-79
2022/01/30 03:48:57;;;;;;;;;;;;;;;6.14;88.77;98086.81;1778559;79;20152;-79
2022/01/30 03:51:22;;;;;;;;;;;;;;;6.17;88.24;98047.14;1782705;79;20175;-80
2022/01/30 03:53:48;;;;;;;;;;;;;;;6.77;85.40;98044.00;1780481;79;20128;-80
2022/01/30 03:56:13;;;;;;;;;;;;;;;6.59;84.65;98053.58;1778700;79;21862;-80
2022/01/30 03:58:39;;;;;;;;;;;;;;;6.31;85.16;98052.91;1781780;79;20140;-78
2022/01/30 04:01:05;;;;;;;;;;;;;;;6.33;85.45;98048.29;1781455;79;20314;-79
2022/01/30 04:03:30;;;;;;;;;;;;;;;6.31;85.72;98059.46;1790850;79;20163;-78
2022/01/30 04:05:56;;;;;;;;;;;;;;;6.75;84.60;98041.55;1790749;79;21571;-79
2022/01/30 04:08:22;;;;;;;;;;;;;;;6.90;83.77;98051.20;1787325;79;21086;-78
2022/01/30 04:10:47;;;;;;;;;;;;;;;6.85;83.32;98054.89;1783191;79;20255;-79
2022/01/30 04:13:13;;;;;;;;;;;;;;;7.07;83.79;98025.07;1777840;79;20283;-79
2022/01/30 04:15:39;;;;;;;;;;;;;;;7.33;81.85;98017.96;1783402;79;20821;-78
2022/01/30 04:18:06;;;;;;;;;;;;;;;7.00;82.15;98019.73;1784068;79;20321;-78
2022/01/30 04:20:32;;;;;;;;;;;;;;;7.70;80.30;98013.91;1788622;79;21066;-78
2022/01/30 04:22:57;;;;;;;;;;;;;;;7.72;80.00;98009.27;1784068;79;20116;-78
2022/01/30 04:25:23;;;;;;;;;;;;;;;7.76;78.54;98017.09;1778736;78;21169;-78
2022/01/30 04:27:49;;;;;;;;;;;;;;;7.74;77.85;97998.09;1782367;79;20277;-78
2022/01/30 04:30:15;;;;;;;;;;;;;;;7.88;77.63;98022.13;1791031;79;20484;-80
2022/01/30 04:32:42;;;;;;;;;;;;;;;7.66;77.06;97990.33;1790954;78;21094;-78
2022/01/30 04:35:14;;;;;;;;;;;;;;;7.72;76.16;98013.20;1783912;79;20114;-78
2022/01/30 04:38:04;;;;;;;;;;;;;;;7.65;75.43;97984.27;1784258;79;20152;-78
2022/01/30 04:40:49;;;;;;;;;;;;;;;8.02;74.47;97967.04;1787267;78;20145;-78
2022/01/30 05:01:56;;;;;;;;;;;;;;;8.53;67.56;97928.55;1786504;79;20135;-78
2022/01/30 05:04:27;;;;;;;;;;;;;;;8.22;68.94;97943.48;1781866;79;20163;-78
2022/01/30 05:09:29;;;;;;;;;;;;;;;7.33;68.84;97951.48;1787295;79;20916;-79
2022/01/30 05:11:54;;;;;;;;;;;;;;;7.14;70.10;97983.94;1785676;79;21060;-79
2022/01/30 05:14:23;;;;;;;;;;;;;;;7.35;68.80;97921.94;1785573;79;20135;-77
2022/01/30 05:16:49;;;;;;;;;;;;;;;7.38;69.57;97921.56;1783155;79;20203;-77
2022/01/30 05:19:15;;;;;;;;;;;;;;;7.52;68.77;97979.73;1789628;79;20170;-79
2022/01/30 05:21:41;;;;;;;;;;;;;;;7.62;68.16;97893.23;1784498;79;20141;-78
2022/01/30 05:24:08;;;;;;;;;;;;;;;7.40;67.74;97897.73;1785571;79;21142;-77
2022/01/30 05:26:33;;;;;;;;;;;;;;;7.41;67.67;97915.92;1786696;79;20168;-77
2022/01/30 05:28:59;;;;;;;;;;;;;;;7.50;67.30;97880.64;1789316;78;20202;-77
2022/01/30 05:31:25;;;;;;;;;;;;;;;7.32;67.55;97927.57;1785018;78;21057;-79
2022/01/30 05:33:51;;;;;;;;;;;;;;;7.68;67.03;97913.47;1780766;79;20207;-77
2022/01/30 05:36:17;;;;;;;;;;;;;;;6.64;72.00;97972.54;1787913;79;21130;-77
2022/01/30 05:38:43;;;;;;;;;;;;;;;6.70;73.25;97960.50;1789285;79;20130;-77
2022/01/30 05:41:09;;;;;;;;;;;;;;;6.45;75.70;97960.33;1785171;79;20206;-78
2022/01/30 05:43:35;;;;;;;;;;;;;;;6.44;75.39;97910.19;1788885;79;20177;-77
2022/01/30 05:46:15;;;;;;;;;;;;;;;6.66;74.49;97899.72;1787221;79;21578;-77
2022/01/30 05:48:35;;;;;;;;;;;;;;;6.53;73.31;97945.49;1781916;79;20119;-78
2022/01/30 05:51:01;;;;;;;;;;;;;;;6.85;71.90;97912.71;1792803;78;20285;-77
2022/01/30 05:53:26;;;;;;;;;;;;;;;6.81;71.36;97950.32;1788361;78;20685;-77
2022/01/30 05:55:52;;;;;;;;;;;;;;;6.70;71.16;97903.61;1788101;79;20787;-80
2022/01/30 05:58:17;;;;;;;;;;;;;;;6.85;70.09;97894.86;1786148;79;20120;-77
2022/01/30 06:00:43;;;;;;;;;;;;;;;6.89;69.57;97919.73;1784364;79;21069;-77
2022/01/30 06:03:08;;;;;;;;;;;;;;;6.58;70.34;97956.23;1788739;79;20247;-79
2022/01/30 06:05:34;;;;;;;;;;;;;;;6.81;69.79;97996.23;1783513;79;20177;-77
2022/01/30 06:08:09;;;;;;;;;;;;;;;7.04;69.18;97905.20;1786154;79;20138;-78
2022/01/30 06:10:27;;;;;;;;;;;;;;;6.72;70.07;97941.45;1787584;79;20261;-78
2022/01/30 06:12:53;;;;;;;;;;;;;;;7.36;70.23;97962.92;1784461;79;21361;-78
2022/01/30 06:15:19;;;;;;;;;;;;;;;6.72;70.61;97898.17;1784959;79;20765;-80
2022/01/30 06:17:44;;;;;;;;;;;;;;;6.54;70.26;97958.89;1783994;79;20402;-77
2022/01/30 06:20:10;;;;;;;;;;;;;;;6.66;70.29;97891.86;1788970;79;20162;-77
2022/01/30 06:22:36;;;;;;;;;;;;;;;6.60;70.55;97964.72;1788466;79;20789;-78
2022/01/30 06:25:03;;;;;;;;;;;;;;;6.72;70.18;97937.52;1782252;79;21068;-78
2022/01/30 06:27:28;;;;;;;;;;;;;;;6.52;70.63;97939.41;1786166;78;20205;-78
2022/01/30 06:29:54;;;;;;;;;;;;;;;6.43;71.61;98004.27;1787931;79;20596;-78
2022/01/30 06:32:20;;;;;;;;;;;;;;;7.30;68.13;97890.17;1784916;79;20847;-78
2022/01/30 06:34:45;;;;;;;;;;;;;;;6.56;71.93;97933.33;1784730;79;20169;-77
2022/01/30 06:37:11;;;;;;;;;;;;;;;6.58;71.95;97915.59;1787832;78;21052;-77
2022/01/30 06:39:36;;;;;;;;;;;;;;;6.63;72.49;97922.39;1787696;79;20165;-77
2022/01/30 06:42:02;;;;;;;;;;;;;;;6.50;72.37;97930.13;1782469;79;20713;-78
2022/01/30 06:44:28;;;;;;;;;;;;;;;6.25;73.13;98023.48;1789302;79;20222;-77
2022/01/30 06:46:53;;;;;;;;;;;;;;;6.67;72.18;97927.58;1782590;79;20452;-78
2022/01/30 06:49:19;;;;;;;;;;;;;;;6.32;73.22;97943.11;1787745;79;21975;-79
2022/01/30 06:51:45;;;;;;;;;;;;;;;6.23;73.09;97999.25;1783650;79;20146;-80
2022/01/30 06:54:10;;;;;;;;;;;;;;;6.57;72.61;97923.13;1783362;79;20294;-79
2022/01/30 06:56:36;;;;;;;;;;;;;;;6.24;73.45;97911.27;1776852;79;20163;-78
2022/01/30 06:59:01;;;;;;;;;;;;;;;6.38;73.03;97989.56;1778835;79;20626;-80
2022/01/30 07:01:27;;;;;;;;;;;;;;;6.42;72.81;97910.88;1787632;79;21914;-78
2022/01/30 07:03:53;;;;;;;;;;;;;;;6.46;72.92;97933.59;1784196;79;20118;-78
2022/01/30 07:06:19;;;;;;;;;;;;;;;6.45;72.78;97894.78;1781698;79;20179;-79
2022/01/30 07:08:44;;;;;;;;;;;;;;;6.36;73.21;97907.69;1784791;79;20124;-78
2022/01/30 07:11:10;;;;;;;;;;;;;;;6.37;72.78;97906.70;1784474;79;20156;-78
2022/01/30 07:13:35;;;;;;;;;;;;;;;6.49;72.53;97891.28;1776982;78;21179;-77
2022/01/30 07:16:01;;;;;;;;;;;;;;;6.61;71.68;97886.37;1779954;78;20575;-77
2022/01/30 07:18:26;;;;;;;;;;;;;;;6.62;71.64;97894.55;1786824;79;20338;-77
2022/01/30 07:20:52;;;;;;;;;;;;;;;6.32;72.41;97869.72;1785386;78;20423;-78
2022/01/30 07:23:18;;;;;;;;;;;;;;;6.27;72.87;97898.30;1786670;79;20135;-78
2022/01/30 07:25:44;;;;;;;;;;;;;;;6.35;72.73;97887.70;1781186;79;21824;-78
2022/01/30 07:28:10;;;;;;;;;;;;;;;6.36;73.06;97883.29;1784008;79;20484;-78
2022/01/30 07:30:36;;;;;;;;;;;;;;;6.78;72.55;97852.33;1782312;79;20198;-78
2022/01/30 07:33:05;;;;;;;;;;;;;;;6.52;72.84;97840.28;1781131;79;20149;-78
2022/01/30 07:35:32;;;;;;;;;;;;;;;6.36;74.00;97867.56;1783636;79;20218;-78
2022/01/30 07:37:58;;;;;;;;;;;;;;;6.27;76.38;97879.45;1789963;79;21168;-78
2022/01/30 07:40:24;;;;;;;;;;;;;;;6.06;80.04;97898.57;1781185;79;20475;-78
2022/01/30 07:42:49;;;;;;;;;;;;;;;5.77;82.08;97936.54;1783670;79;20188;-80
2022/01/30 07:45:15;;;;;;;;;;;;;;;5.80;83.46;97884.61;1785634;79;20503;-77
2022/01/30 07:47:41;;;;;;;;;;;;;;;5.42;86.10;97903.50;1782379;79;20159;-77
2022/01/30 07:50:07;;;;;;;;;;;;;;;5.14;88.51;97894.92;1786099;78;21094;-78
2022/01/30 07:52:32;;;;;;;;;;;;;;;4.81;91.49;97897.80;1787833;79;21207;-77
2022/01/30 07:54:58;;;;;;;;;;;;;;;4.83;93.40;97889.28;1789520;79;20451;-78
2022/01/30 07:57:23;;;;;;;;;;;;;;;4.45;95.06;97859.17;1788121;78;20730;-79
2022/01/30 07:59:49;;;;;;;;;;;;;;;4.46;95.38;97859.51;1787121;79;20126;-80
2022/01/30 08:02:14;;;;;;;;;;;;;;;4.64;94.65;97850.85;1788591;79;21155;-79
2022/01/30 08:04:40;;;;;;;;;;;;;;;4.51;95.56;97855.87;1789014;79;20293;-79
2022/01/30 08:07:06;;;;;;;;;;;;;;;4.46;95.83;97868.66;1785218;79;20121;-79
2022/01/30 08:09:32;;;;;;;;;;;;;;;4.30;97.30;97878.22;1783486;79;20156;-79
2022/01/30 08:11:57;;;;;;;;;;;;;;;4.24;97.29;97895.88;1786694;79;20186;-77
2022/01/30 08:14:23;;;;;;;;;;;;;;;4.50;96.30;97851.62;1785379;79;21167;-77
2022/01/30 08:16:49;;;;;;;;;;;;;;;4.53;96.77;97872.18;1789134;79;20460;-79
2022/01/30 08:19:15;;;;;;;;;;;;;;;4.56;95.25;97858.77;1786483;79;21288;-79
2022/01/30 08:21:41;;;;;;;;;;;;;;;4.48;96.07;97886.27;1786258;79;21255;-79
2022/01/30 08:24:06;;;;;;;;;;;;;;;4.44;95.07;97886.28;1785997;79;20150;-79
2022/01/30 08:26:32;;;;;;;;;;;;;;;4.27;96.21;97860.27;1786090;78;20914;-79
2022/01/30 11:16:55;;;;;;;;;;;;;;;4.27;97.73;97860.27;1588154;78;975378;-78
2022/01/30 11:18:21;;;;;;;;;;;;;;;4.27;97.73;97860.27;1625353;79;976701;-79
2022/01/30 11:20:47;;;;;;;;;;;;;;;5.73;92.75;97871.44;1791081;78;21655;-79
2022/01/30 11:23:13;;;;;;;;;;;;;;;5.74;93.41;97825.91;1785412;79;20140;-79
2022/01/30 11:25:39;;;;;;;;;;;;;;;5.73;93.40;97824.30;1762125;79;20145;-78
2022/01/30 11:28:06;;;;;;;;;;;;;;;5.92;93.39;97835.20;1790314;78;20122;-78
2022/01/30 11:30:32;;;;;;;;;;;;;;;5.96;93.24;97880.17;1789516;79;20124;-79
2022/01/30 11:32:58;;;;;;;;;;;;;;;6.18;92.72;97881.06;1789545;78;20209;-79
2022/01/30 11:35:24;;;;;;;;;;;;;;;6.44;91.74;97878.72;1783463;79;20195;-78
2022/01/30 11:37:49;;;;;;;;;;;;;;;6.21;92.18;97914.77;1783177;78;21895;-79
2022/01/30 11:40:16;;;;;;;;;;;;;;;6.23;91.55;97912.76;1783558;79;20151;-79
2022/01/30 11:42:47;;;;;;;;;;;;;;;6.39;90.71;97930.91;1781914;79;20501;-79
2022/01/30 11:45:32;;;;;;;;;;;;;;;6.49;89.11;97891.78;1785956;79;20175;-80
2022/01/30 11:48:00;;;;;;;;;;;;;;;6.55;88.56;97947.42;1789205;79;20502;-79
2022/01/30 11:50:28;;;;;;;;;;;;;;;6.41;88.34;97959.05;1783256;79;21024;-81
2022/01/30 11:53:04;;;;;;;;;;;;;;;6.47;88.29;97935.23;1780958;79;20120;-81
2022/01/30 11:55:51;;;;;;;;;;;;;;;6.73;87.62;97909.79;1779307;79;20260;-79
2022/01/30 11:58:49;;;;;;;;;;;;;;;6.65;87.49;97905.98;1775681;79;20163;-79
2022/01/30 12:01:34;;;;;;;;;;;;;;;7.31;85.21;97916.23;1784004;78;20144;-79
2022/01/30 12:03:59;;;;;;;;;;;;;;;6.68;87.00;97937.09;1776614;79;20089;-79
2022/01/30 12:06:28;;;;;;;;;;;;;;;6.86;86.86;97922.72;1780521;79;20148;-79
2022/01/30 12:08:59;;;;;;;;;;;;;;;6.69;86.84;97904.59;1778943;79;20148;-78
2022/01/30 12:11:40;;;;;;;;;;;;;;;6.93;87.09;97902.59;1783235;79;20161;-79
2022/01/30 12:14:26;;;;;;;;;;;;;;;6.62;87.04;97922.09;1776775;79;20223;-79
2022/01/30 12:16:56;;;;;;;;;;;;;;;6.61;87.18;97923.88;1787827;79;21815;-78
2022/01/30 12:19:39;;;;;;;;;;;;;;;6.79;87.08;97925.27;1783202;79;20479;-79
2022/01/30 12:22:20;;;;;;;;;;;;;;;6.55;87.40;97943.48;1712887;82;20181;-79
2022/01/30 12:24:47;;;;;;;;;;;;;;;6.63;87.27;97953.86;1727384;81;20462;-78
2022/01/30 12:27:12;;;;;;;;;;;;;;;6.51;87.63;97952.70;1734049;82;20198;-78
2022/01/30 12:29:46;;;;;;;;;;;;;;;6.59;88.38;97976.22;1732064;81;21071;-79
2022/01/30 12:32:25;;;;;;;;;;;;;;;6.44;89.20;97991.46;1731631;82;20140;-79
2022/01/30 12:35:01;;;;;;;;;;;;;;;6.32;90.08;97974.56;1729022;82;20209;-79
2022/01/30 12:37:31;;;;;;;;;;;;;;;6.11;89.89;97986.61;1730580;82;20215;-79
2022/01/30 12:39:58;;;;;;;;;;;;;;;6.07;91.52;97988.45;1727327;82;20769;-79
2022/01/30 12:42:27;;;;;;;;;;;;;;;6.60;89.34;97972.11;1724587;82;21985;-80
2022/01/30 12:44:58;;;;;;;;;;;;;;;6.59;89.35;97996.69;1727142;82;20235;-81
2022/01/30 12:47:23;;;;;;;;;;;;;;;6.26;90.56;97991.86;1732216;80;20501;-78
2022/01/30 12:49:52;;;;;;;;;;;;;;;5.89;91.09;98016.30;1726529;82;20183;-79
2022/01/30 12:52:35;;;;;;;;;;;;;;;5.91;90.77;98064.88;1731872;82;20185;-78
2022/01/30 12:54:57;;;;;;;;;;;;;;;6.30;89.84;98014.58;1748376;80;20114;-78
2022/01/30 12:57:24;;;;;;;;;;;;;;;6.23;89.73;98039.39;1749241;81;20295;-79
2022/01/30 12:59:53;;;;;;;;;;;;;;;6.45;89.18;98014.07;1753899;81;20484;-78
2022/01/30 13:02:19;;;;;;;;;;;;;;;6.17;90.60;98034.04;1750117;81;20193;-77
2022/01/30 13:04:45;;;;;;;;;;;;;;;6.34;90.26;98009.30;1753233;81;20089;-80
2022/01/30 13:07:13;;;;;;;;;;;;;;;6.00;91.04;98074.03;1754173;81;21872;-80
2022/01/30 13:09:39;;;;;;;;;;;;;;;5.96;91.76;98030.30;1752129;80;20175;-78
2022/01/30 13:12:12;;;;;;;;;;;;;;;6.09;91.53;98035.77;1753788;81;20249;-78
2022/01/30 13:14:39;;;;;;;;;;;;;;;6.03;91.72;98083.64;1754494;81;20208;-78
2022/01/30 13:17:05;;;;;;;;;;;;;;;6.06;91.96;98051.84;1755165;81;20146;-78
2022/01/30 13:19:34;;;;;;;;;;;;;;;6.00;91.28;98060.42;1751462;81;21907;-80
2022/01/30 13:22:00;;;;;;;;;;;;;;;6.05;91.05;98079.03;1749856;81;20119;-79
2022/01/30 13:24:26;;;;;;;;;;;;;;;6.23;90.51;98075.25;1748724;81;20569;-80
2022/01/30 13:27:03;;;;;;;;;;;;;;;6.43;90.13;98069.81;1719862;81;20824;-80
2022/01/30 13:29:33;;;;;;;;;;;;;;;6.40;89.67;98137.50;1753835;80;20139;-79
2022/01/30 13:31:57;;;;;;;;;;;;;;;6.31;90.02;98096.16;1749904;80;20132;-78
2022/01/30 13:34:25;;;;;;;;;;;;;;;6.29;89.70;98092.88;1755611;81;20205;-78
2022/01/30 13:36:54;;;;;;;;;;;;;;;6.53;89.87;98114.11;1753944;81;20885;-78
2022/01/30 13:39:28;;;;;;;;;;;;;;;6.85;88.17;98119.16;1749114;81;20171;-78
2022/01/30 13:42:02;;;;;;;;;;;;;;;7.09;87.01;98146.42;1751057;81;20266;-80
2022/01/30 13:44:25;;;;;;;;;;;;;;;6.65;87.76;98118.42;1748378;81;20606;-81
2022/01/30 13:47:03;;;;;;;;;;;;;;;6.68;88.27;98115.91;1757601;81;20499;-78
2022/01/30 13:49:25;;;;;;;;;;;;;;;7.07;86.38;98131.84;1745180;81;20146;-80
2022/01/30 13:52:06;;;;;;;;;;;;;;;6.67;87.80;98182.50;1751282;81;20963;-81
2022/01/30 13:54:31;;;;;;;;;;;;;;;6.77;86.91;98186.45;1741087;80;20159;-78
2022/01/30 13:57:07;;;;;;;;;;;;;;;6.76;86.23;98162.55;1725950;82;21083;-78
2022/01/30 13:59:33;;;;;;;;;;;;;;;6.68;85.87;98146.91;1724346;82;20212;-80
2022/01/30 14:02:02;;;;;;;;;;;;;;;6.64;85.18;98229.55;1727901;82;20432;-79
2022/01/30 14:04:27;;;;;;;;;;;;;;;6.90;84.00;98164.02;1726156;81;20088;-79
2022/01/30 14:06:54;;;;;;;;;;;;;;;6.80;83.88;98170.36;1725416;81;20264;-79
2022/01/30 14:09:25;;;;;;;;;;;;;;;6.83;83.97;98190.98;1730418;81;20089;-78
2022/01/30 14:11:52;;;;;;;;;;;;;;;6.55;84.65;98195.22;1730357;81;20147;-80
2022/01/30 14:14:17;;;;;;;;;;;;;;;6.76;83.93;98182.22;1725996;82;20101;-80
2022/01/30 14:16:49;;;;;;;;;;;;;;;6.87;83.18;98231.29;1729385;82;20196;-81
2022/01/30 14:19:30;;;;;;;;;;;;;;;7.17;81.99;98176.49;1724583;82;20136;-80
2022/01/30 14:22:18;;;;;;;;;;;;;;;7.09;82.97;98190.23;1733346;82;21341;-78
2022/01/30 14:24:47;;;;;;;;;;;;;;;6.88;82.59;98214.05;1730986;81;20146;-78
2022/01/30 14:27:13;;;;;;;;;;;;;;;6.85;82.98;98209.67;1731918;81;20194;-78
2022/01/30 14:29:39;;;;;;;;;;;;;;;6.97;82.32;98231.84;1726421;81;21231;-78
2022/01/30 14:32:09;;;;;;;;;;;;;;;6.90;83.27;98206.00;1730387;82;20179;-78
2022/01/30 14:34:35;;;;;;;;;;;;;;;6.56;84.12;98234.88;1726836;82;21892;-78
2022/01/30 14:37:02;;;;;;;;;;;;;;;6.58;84.31;98231.58;1727394;82;20174;-78
2022/01/30 14:39:31;;;;;;;;;;;;;;;6.54;84.55;98284.05;1732966;82;20168;-80
2022/01/30 14:41:57;;;;;;;;;;;;;;;6.77;84.51;98240.23;1726205;81;20238;-79
2022/01/30 14:44:22;;;;;;;;;;;;;;;6.77;84.49;98265.16;1728218;81;20170;-79
2022/01/30 14:46:48;;;;;;;;;;;;;;;6.54;86.29;98274.40;1730580;81;21140;-79
2022/01/30 14:49:14;;;;;;;;;;;;;;;6.63;85.33;98254.98;1726782;82;20748;-78
2022/01/30 14:51:39;;;;;;;;;;;;;;;6.68;85.67;98278.05;1729491;82;20132;-78
2022/01/30 14:54:05;;;;;;;;;;;;;;;6.73;85.06;98266.52;1735792;79;20128;-80
2022/01/30 14:56:31;;;;;;;;;;;;;;;6.51;86.25;98336.84;1732394;82;20462;-79
2022/01/30 14:58:56;;;;;;;;;;;;;;;6.58;85.63;98274.84;1734424;82;21170;-78
2022/01/30 15:01:23;;;;;;;;;;;;;;;6.97;84.02;98293.52;1732794;81;20667;-78
2022/01/30 15:03:48;;;;;;;;;;;;;;;6.88;84.15;98327.38;1728871;82;20133;-81
2022/01/30 15:06:14;;;;;;;;;;;;;;;6.94;81.68;98290.74;1732581;82;20169;-80
2022/01/30 15:08:40;;;;;;;;;;;;;;;6.82;82.30;98303.49;1727332;82;20163;-78
2022/01/30 15:11:05;;;;;;;;;;;;;;;6.97;80.25;98330.25;1729942;80;21213;-80
2022/01/30 15:13:36;;;;;;;;;;;;;;;6.86;79.61;98292.64;1726819;82;20687;-80
2022/01/30 15:16:06;;;;;;;;;;;;;;;7.11;78.05;98320.27;1731306;82;20644;-80
2022/01/30 15:18:35;;;;;;;;;;;;;;;;;;1736499;82;20557;-79
2022/01/30 15:20:59;;;;;;;;;;;;;;;7.57;76.56;98313.22;1731297;82;20169;-78
2022/01/30 15:23:25;;;;;;;;;;;;;;;7.34;77.97;98333.84;1733801;82;21230;-78
2022/01/30 15:25:50;;;;;;;;;;;;;;;7.42;78.81;98353.44;1730071;82;20301;-80
2022/01/30 15:28:16;;;;;;;;;;;;;;;6.83;80.61;98349.70;1728290;82;20639;-81
2022/01/30 15:30:41;;;;;;;;;;;;;;;7.36;80.06;98356.78;1722731;81;20177;-80
2022/01/30 15:33:07;;;;;;;;;;;;;;;7.14;78.70;98350.09;1735820;81;20561;-81
2022/01/30 15:35:33;;;;;;;;;;;;;;;7.50;76.88;98352.54;1736296;80;21886;-78
2022/01/30 15:37:59;;;;;;;;;;;;;;;7.49;76.62;98343.86;1730612;82;20173;-81
2022/01/30 15:40:25;;;;;;;;;;;;;;;7.28;76.73;98383.94;1734929;82;20283;-78
2022/01/30 15:42:51;;;;;;;;;;;;;;;7.26;75.36;98379.88;1725336;82;20218;-78
2022/01/30 15:50:30;;;;;;;;;;;;;;;7.65;72.49;98367.00;1703755;82;20549;-80
2022/01/30 15:52:55;;;;;;;;;;;;;;;7.79;72.25;98364.86;1702386;82;20199;-77
2022/01/30 15:55:22;;;;;;;;;;;;;;;7.52;73.03;98385.52;1740282;80;20233;-78
2022/01/30 15:57:48;;;;;;;;;;;;;;;7.51;72.84;98394.38;1764222;80;20164;-78
2022/01/30 16:00:14;;;;;;;;;;;;;;;7.25;72.73;98396.61;1765537;80;20684;-78
2022/01/30 16:02:41;;;;;;;;;;;;;;;7.50;71.88;98442.67;1761465;80;20157;-78
2022/01/30 16:05:07;;;;;;;;;;;;;;;7.75;71.24;98415.33;1758999;80;20634;-78
2022/01/30 16:07:33;;;;;;;;;;;;;;;7.44;72.06;98438.13;1762686;80;20240;-79
2022/01/30 16:10:05;;;;;;;;;;;;;;;7.34;72.66;98487.45;1764314;80;20126;-79
2022/01/30 16:17:47;;;;;;;;;;;;;;;7.33;73.71;98442.48;1763903;80;20150;-79
2022/01/30 16:20:14;;;;;;;;;;;;;;;7.53;73.22;98448.86;1761737;80;20134;-79
2022/01/30 16:22:39;;;;;;;;;;;;;;;7.41;73.87;98420.11;1761514;80;21081;-79
2022/01/30 16:25:06;;;;;;;;;;;;;;;7.47;73.47;98439.57;1762620;80;21167;-79
2022/01/30 16:27:32;;;;;;;;;;;;;;;7.09;74.51;98446.94;1763437;80;20198;-79
2022/01/30 16:29:57;;;;;;;;;;;;;;;7.23;74.12;98470.80;1763438;80;20154;-79
2022/01/30 16:32:23;;;;;;;;;;;;;;;7.13;74.22;98470.55;1764241;80;20138;-79
2022/01/30 16:34:48;;;;;;;;;;;;;;;7.08;73.76;98466.80;1766086;80;20134;-79
2022/01/30 16:37:14;;;;;;;;;;;;;;;7.25;73.09;98473.55;1763144;80;20583;-79
2022/01/30 16:39:40;;;;;;;;;;;;;;;7.07;72.53;98457.28;1762512;80;20552;-79
2022/01/30 16:42:07;;;;;;;;;;;;;;;7.12;72.47;98478.59;1763517;80;20116;-78